createdAt,value
2023-01-07T00:00:24.317Z,15.98
2023-01-07T00:03:28.110Z,21.65
2023-01-07T00:06:33.614Z,20.67
2023-01-07T00:09:37.021Z,14.57
2023-01-07T00:12:40.400Z,19.47
2023-01-07T00:15:44.793Z,12.23
2023-01-07T00:18:48.742Z,15.30
2023-01-07T00:21:52.215Z,15.43
2023-01-07T00:24:55.644Z,19.23
2023-01-07T00:27:58.941Z,20.33
2023-01-07T00:31:05.039Z,13.00
2023-01-07T00:34:09.682Z,18.05
2023-01-07T00:37:32.685Z,19.92
2023-01-07T00:40:36.035Z,21.30
2023-01-07T00:43:39.482Z,14.30
2023-01-07T00:46:43.932Z,21.75
2023-01-07T00:49:47.289Z,11.68
2023-01-07T00:52:50.954Z,13.67
2023-01-07T00:55:54.077Z,12.57
2023-01-07T00:58:57.089Z,17.00
2023-01-07T01:02:01.638Z,16.05
2023-01-07T01:05:06.364Z,16.85
2023-01-07T01:08:11.356Z,11.70
2023-01-07T01:11:17.377Z,16.90
2023-01-07T01:14:20.809Z,14.40
2023-01-07T01:17:25.359Z,11.05
2023-01-07T01:20:28.689Z,11.60
2023-01-07T01:23:32.080Z,17.03
2023-01-07T01:26:35.387Z,14.17
2023-01-07T01:29:38.748Z,15.67
2023-01-07T01:32:43.129Z,17.35
2023-01-07T01:35:46.593Z,14.90
2023-01-07T01:38:50.220Z,14.40
2023-01-07T01:41:53.532Z,22.13
2023-01-07T01:44:58.836Z,19.20
2023-01-07T01:48:09.440Z,21.85
2023-01-07T01:51:16.604Z,20.02
2023-01-07T01:54:21.775Z,20.63
2023-01-07T01:57:29.907Z,20.77
2023-01-07T02:00:35.287Z,15.10
2023-01-07T02:03:40.465Z,17.65
2023-01-07T02:06:51.667Z,20.63
2023-01-07T02:10:02.161Z,14.30
2023-01-07T02:13:26.527Z,19.15
2023-01-07T02:16:39.252Z,17.00
2023-01-07T02:20:30.400Z,21.98
2023-01-07T02:24:36.779Z,14.25
2023-01-07T02:28:29.613Z,15.93
2023-01-07T02:32:03.472Z,15.30
2023-01-07T02:35:24.843Z,11.55
2023-01-07T02:38:41.777Z,22.10
2023-01-07T02:41:58.463Z,17.25
2023-01-07T02:45:12.378Z,21.25
2023-01-07T02:48:20.572Z,14.70
2023-01-07T02:51:34.474Z,14.48
2023-01-07T02:54:37.513Z,19.92
2023-01-07T02:58:24.243Z,19.05
2023-01-07T03:01:53.768Z,16.70
2023-01-07T03:05:33.761Z,14.45
2023-01-07T03:08:58.722Z,12.32
2023-01-07T03:12:10.500Z,12.27
2023-01-07T03:15:22.093Z,17.13
2023-01-07T03:18:30.349Z,15.55
2023-01-07T03:21:36.036Z,13.02
2023-01-07T03:24:41.250Z,16.25
2023-01-07T03:27:49.246Z,17.10
2023-01-07T03:30:55.624Z,11.70
2023-01-07T03:34:04.483Z,20.20
2023-01-07T03:37:13.910Z,18.55
2023-01-07T03:40:20.388Z,13.00
2023-01-07T03:43:24.602Z,14.65
2023-01-07T03:49:31.100Z,15.00
2023-01-07T03:52:35.527Z,15.00
2023-01-07T03:55:38.585Z,16.63
2023-01-07T03:58:41.537Z,11.25
2023-01-07T04:01:44.679Z,14.95
2023-01-07T04:04:47.833Z,17.17
2023-01-07T04:07:52.268Z,13.38
2023-01-07T04:10:55.221Z,18.90
2023-01-07T04:14:00.643Z,16.67
2023-01-07T04:17:03.845Z,15.40
2023-01-07T04:20:08.563Z,22.90
2023-01-07T04:23:13.029Z,18.95
2023-01-07T04:26:16.077Z,13.15
2023-01-07T04:29:20.972Z,16.02
2023-01-07T04:32:24.065Z,15.55
2023-01-07T04:35:27.164Z,11.68
2023-01-07T04:38:31.717Z,16.58
2023-01-07T04:41:34.784Z,18.30
2023-01-07T04:44:37.757Z,15.95
2023-01-07T04:47:40.737Z,16.13
2023-01-07T04:50:43.778Z,12.18
2023-01-07T04:53:48.660Z,11.18
2023-01-07T04:56:51.605Z,20.23
2023-01-07T04:59:54.877Z,15.43
2023-01-07T05:02:58.049Z,15.20
2023-01-07T05:06:01.606Z,12.80
2023-01-07T05:09:06.397Z,13.40
2023-01-07T05:12:09.439Z,17.70
2023-01-07T05:15:13.198Z,13.90
2023-01-07T05:18:17.066Z,11.63
2023-01-07T05:21:20.447Z,18.98
2023-01-07T05:24:24.758Z,9.97
2023-01-07T05:27:28.156Z,22.55
2023-01-07T05:30:31.545Z,9.37
2023-01-07T05:33:34.923Z,15.70
2023-01-07T05:36:38.284Z,16.00
2023-01-07T05:39:42.641Z,16.20
2023-01-07T05:42:46.180Z,18.77
2023-01-07T05:45:49.985Z,13.48
2023-01-07T05:48:54.119Z,23.88
2023-01-07T05:55:01.293Z,14.55
2023-01-07T05:58:04.243Z,18.08
2023-01-07T06:01:07.244Z,8.90
2023-01-07T06:04:10.769Z,18.00
2023-01-07T06:07:13.988Z,12.70
2023-01-07T06:10:18.963Z,14.50
2023-01-07T06:13:22.362Z,19.60
2023-01-07T06:16:25.825Z,15.82
2023-01-07T06:19:29.177Z,13.98
2023-01-07T06:22:32.486Z,15.93
2023-01-07T06:25:37.121Z,16.10
2023-01-07T06:28:40.335Z,21.20
2023-01-07T06:31:43.764Z,12.37
2023-01-07T06:34:46.727Z,17.77
2023-01-07T06:37:50.053Z,18.70
2023-01-07T06:40:54.248Z,14.63
2023-01-07T06:47:00.507Z,22.55
2023-01-07T06:50:03.646Z,13.27
2023-01-07T06:53:06.840Z,11.00
2023-01-07T06:56:11.654Z,18.00
2023-01-07T06:59:14.831Z,15.20
2023-01-07T07:02:21.166Z,18.63
2023-01-07T07:05:25.315Z,17.63
2023-01-07T07:11:33.244Z,16.88
2023-01-07T07:14:36.782Z,22.08
2023-01-07T07:17:40.252Z,20.10
2023-01-07T07:20:43.844Z,19.20
2023-01-07T07:23:46.974Z,20.58
2023-01-07T07:26:52.065Z,21.77
2023-01-07T07:29:55.087Z,22.13
2023-01-07T07:33:03.480Z,21.35
2023-01-07T07:36:07.319Z,23.88
2023-01-07T07:39:11.821Z,20.33
2023-01-07T07:42:16.275Z,18.77
2023-01-07T07:45:19.802Z,20.65
2023-01-07T07:48:22.981Z,24.27
2023-01-07T07:51:26.076Z,20.33
2023-01-07T07:54:29.435Z,23.35
2023-01-07T07:57:33.864Z,22.80
2023-01-07T08:00:36.936Z,19.00
2023-01-07T08:03:40.209Z,20.23
2023-01-07T08:06:43.331Z,20.93
2023-01-07T08:09:46.236Z,16.85
2023-01-07T08:12:51.071Z,17.90
2023-01-07T08:15:54.163Z,22.88
2023-01-07T08:18:57.247Z,21.35
2023-01-07T08:22:00.227Z,24.73
2023-01-07T08:25:03.817Z,21.38
2023-01-07T08:28:08.358Z,21.77
2023-01-07T08:31:11.944Z,20.17
2023-01-07T08:34:15.203Z,25.52
2023-01-07T08:37:18.654Z,23.20
2023-01-07T08:40:21.656Z,30.10
2023-01-07T08:43:26.173Z,16.50
2023-01-07T08:46:29.281Z,21.25
2023-01-07T08:49:33.289Z,21.45
2023-01-07T08:52:36.265Z,20.40
2023-01-07T08:55:39.263Z,23.63
2023-01-07T08:58:43.563Z,21.25
2023-01-07T09:01:46.688Z,27.45
2023-01-07T09:04:50.290Z,24.23
2023-01-07T09:07:54.173Z,29.23
2023-01-07T09:10:57.516Z,28.15
2023-01-07T09:14:02.040Z,21.57
2023-01-07T09:17:05.099Z,25.75
2023-01-07T09:20:10.336Z,26.63
2023-01-07T09:23:13.366Z,27.50
2023-01-07T09:26:17.672Z,27.23
2023-01-07T09:29:22.130Z,20.25
2023-01-07T09:32:25.185Z,30.35
2023-01-07T09:35:28.259Z,25.30
2023-01-07T09:38:31.490Z,23.42
2023-01-07T09:41:56.044Z,23.50
2023-01-07T09:45:16.475Z,26.05
2023-01-07T09:48:30.307Z,27.25
2023-01-07T09:51:40.216Z,23.33
2023-01-07T09:54:45.580Z,24.50
2023-01-07T09:57:53.576Z,28.05
2023-01-07T10:01:18.568Z,30.00
2023-01-07T10:04:39.484Z,19.85
2023-01-07T10:07:51.218Z,32.70
2023-01-07T10:11:05.584Z,28.35
2023-01-07T10:17:56.584Z,32.08
2023-01-07T10:21:13.289Z,31.48
2023-01-07T10:24:24.450Z,24.90
2023-01-07T10:27:34.254Z,27.75
2023-01-07T10:30:45.321Z,21.48
2023-01-07T10:33:52.415Z,28.17
2023-01-07T10:37:03.626Z,24.25
2023-01-07T10:40:28.963Z,22.55
2023-01-07T10:43:59.741Z,26.08
2023-01-07T10:47:17.910Z,21.30
2023-01-07T10:50:41.121Z,19.52
2023-01-07T10:54:01.313Z,20.38
2023-01-07T10:57:13.651Z,18.42
2023-01-07T11:00:19.305Z,22.08
2023-01-07T11:03:25.346Z,25.52
2023-01-07T11:06:40.528Z,20.73
2023-01-07T11:09:48.063Z,22.30
2023-01-07T11:12:55.386Z,20.38
2023-01-07T11:16:07.732Z,24.40
2023-01-07T11:19:13.005Z,25.63
2023-01-07T11:22:37.892Z,22.75
2023-01-07T11:25:42.058Z,23.48
2023-01-07T11:31:58.709Z,20.92
2023-01-07T11:35:06.598Z,19.90
2023-01-07T11:38:29.764Z,15.25
2023-01-07T11:41:32.764Z,18.98
2023-01-07T11:44:35.721Z,15.77
2023-01-07T11:47:45.409Z,15.60
2023-01-07T11:51:00.040Z,17.98
2023-01-07T11:54:07.466Z,17.98
2023-01-07T11:57:21.601Z,10.40
2023-01-07T12:00:25.678Z,13.65
2023-01-07T12:03:28.786Z,12.20
2023-01-07T12:06:35.868Z,9.80
2023-01-07T12:09:45.920Z,12.05
2023-01-07T12:12:48.847Z,9.13
2023-01-07T12:15:57.455Z,8.57
2023-01-07T12:19:19.110Z,9.52
2023-01-07T12:22:35.809Z,8.18
2023-01-07T12:25:55.558Z,7.90
2023-01-07T12:29:14.716Z,6.88
2023-01-07T12:32:45.217Z,4.90
2023-01-07T12:35:48.772Z,6.20
2023-01-07T12:38:57.453Z,6.78
2023-01-07T12:42:13.228Z,4.75
2023-01-07T12:45:24.076Z,3.97
2023-01-07T12:48:38.192Z,4.90
2023-01-07T12:51:51.850Z,4.78
2023-01-07T12:55:01.725Z,5.70
2023-01-07T12:58:17.742Z,5.22
2023-01-07T13:01:31.585Z,6.13
2023-01-07T13:04:54.643Z,5.18
2023-01-07T13:08:12.456Z,5.63
2023-01-07T13:11:46.423Z,7.68
2023-01-07T13:15:02.414Z,5.28
2023-01-07T13:18:16.906Z,10.88
2023-01-07T13:24:54.488Z,6.07
2023-01-07T13:28:40.072Z,6.40
2023-01-07T13:32:23.037Z,6.28
2023-01-07T13:35:49.587Z,5.82
2023-01-07T13:39:40.768Z,7.68
2023-01-07T13:42:52.051Z,5.70
2023-01-07T13:46:03.057Z,5.32
2023-01-07T13:49:24.541Z,4.80
2023-01-07T13:52:36.547Z,6.85
2023-01-07T13:55:42.669Z,8.80
2023-01-07T13:58:48.215Z,9.65
2023-01-07T14:02:18.516Z,6.10
2023-01-07T14:05:28.906Z,7.78
2023-01-07T14:08:32.413Z,8.18
2023-01-07T14:12:13.321Z,7.55
2023-01-07T14:16:04.131Z,8.95
2023-01-07T14:19:20.397Z,8.30
2023-01-07T14:22:41.257Z,11.50
2023-01-07T14:26:06.657Z,10.02
2023-01-07T14:29:31.784Z,10.75
2023-01-07T14:32:37.860Z,11.38
2023-01-07T14:35:43.327Z,12.30
2023-01-07T14:39:31.251Z,15.15
2023-01-07T14:42:44.803Z,14.73
2023-01-07T14:45:55.991Z,12.13
2023-01-07T14:49:32.204Z,14.63
2023-01-07T14:53:46.352Z,15.95
2023-01-07T14:57:07.209Z,17.27
2023-01-07T15:00:55.771Z,15.13
2023-01-07T15:04:53.170Z,18.75
2023-01-07T15:08:17.029Z,24.92
2023-01-07T15:11:44.209Z,21.85
2023-01-07T15:15:12.898Z,24.63
2023-01-07T15:18:16.994Z,21.60
2023-01-07T15:21:34.221Z,22.45
2023-01-07T15:24:46.920Z,21.92
2023-01-07T15:27:59.639Z,23.15
2023-01-07T15:31:13.622Z,28.15
2023-01-07T15:34:18.920Z,27.58
2023-01-07T15:37:23.490Z,26.02
2023-01-07T15:40:28.082Z,27.20
2023-01-07T15:43:32.936Z,28.55
2023-01-07T15:46:41.674Z,34.83
2023-01-07T15:49:44.618Z,33.83
2023-01-07T15:52:50.615Z,31.83
2023-01-07T15:56:00.486Z,32.28
2023-01-07T15:59:09.321Z,34.05
2023-01-07T16:02:24.122Z,34.03
2023-01-07T16:05:27.263Z,37.72
2023-01-07T16:08:33.381Z,35.20
2023-01-07T16:11:36.566Z,39.95
2023-01-07T16:14:39.566Z,38.55
2023-01-07T16:17:52.651Z,32.15
2023-01-07T16:21:00.438Z,37.92
2023-01-07T16:24:03.823Z,32.53
2023-01-07T16:27:07.343Z,36.77
2023-01-07T16:30:15.793Z,38.13
2023-01-07T16:33:25.588Z,36.17
2023-01-07T16:36:40.542Z,34.90
2023-01-07T16:42:51.277Z,28.42
2023-01-07T16:46:17.113Z,35.13
2023-01-07T16:49:29.270Z,31.48
2023-01-07T16:52:34.408Z,30.58
2023-01-07T16:55:49.977Z,28.30
2023-01-07T16:58:55.561Z,31.98
2023-01-07T17:02:01.186Z,28.95
2023-01-07T17:05:20.903Z,29.67
2023-01-07T17:08:24.402Z,31.52
2023-01-07T17:11:36.539Z,31.50
2023-01-07T17:14:50.558Z,30.77
2023-01-07T17:18:09.189Z,26.40
2023-01-07T17:21:40.260Z,28.83
2023-01-07T17:24:50.399Z,21.75
2023-01-07T17:27:58.120Z,21.08
2023-01-07T17:31:02.298Z,24.88
2023-01-07T17:37:15.879Z,23.80
2023-01-07T17:40:20.474Z,21.48
2023-01-07T17:43:35.220Z,25.70
2023-01-07T17:46:39.000Z,23.10
2023-01-07T17:49:42.351Z,23.20
2023-01-07T17:52:48.923Z,19.90
2023-01-07T17:55:52.332Z,19.75
2023-01-07T17:58:56.310Z,20.33
2023-01-07T18:02:00.674Z,19.95
2023-01-07T18:05:03.763Z,21.45
2023-01-07T18:08:09.167Z,17.45
2023-01-07T18:11:33.612Z,16.67
2023-01-07T18:14:36.578Z,19.25
2023-01-07T18:17:40.000Z,22.63
2023-01-07T18:20:42.966Z,18.37
2023-01-07T18:23:47.549Z,18.00
2023-01-07T18:26:51.557Z,20.88
2023-01-07T18:29:54.523Z,15.80
2023-01-07T18:32:57.586Z,21.42
2023-01-07T18:36:00.594Z,15.43
2023-01-07T18:39:06.624Z,15.25
2023-01-07T18:42:09.789Z,17.15
2023-01-07T18:45:13.569Z,17.02
2023-01-07T18:48:19.313Z,16.70
2023-01-07T18:51:22.657Z,17.05
2023-01-07T18:54:27.070Z,17.37
2023-01-07T18:57:30.470Z,17.10
2023-01-07T19:00:33.824Z,14.77
2023-01-07T19:03:38.282Z,17.33
2023-01-07T19:06:41.339Z,17.95
2023-01-07T19:09:46.038Z,16.15
2023-01-07T19:12:50.262Z,16.73
2023-01-07T19:15:53.934Z,16.25
2023-01-07T19:18:57.426Z,17.40
2023-01-07T19:22:00.398Z,13.95
2023-01-07T19:25:05.743Z,15.85
2023-01-07T19:28:08.760Z,16.33
2023-01-07T19:31:12.541Z,15.70
2023-01-07T19:34:16.469Z,14.05
2023-01-07T19:37:21.822Z,12.65
2023-01-07T19:40:26.127Z,13.65
2023-01-07T19:43:29.113Z,13.98
2023-01-07T19:46:34.298Z,11.02
2023-01-07T19:49:37.273Z,13.45
2023-01-07T19:52:40.251Z,13.43
2023-01-07T19:55:44.538Z,13.23
2023-01-07T19:58:47.542Z,11.68
2023-01-07T20:01:51.836Z,10.77
2023-01-07T20:04:55.041Z,10.30
2023-01-07T20:07:59.052Z,14.25
2023-01-07T20:11:03.960Z,11.07
2023-01-07T20:14:08.100Z,9.80
2023-01-07T20:20:14.114Z,13.63
2023-01-07T20:23:17.032Z,9.90
2023-01-07T20:26:23.680Z,9.48
2023-01-07T20:29:26.791Z,11.70
2023-01-07T20:32:29.735Z,10.35
2023-01-07T20:35:32.926Z,8.52
2023-01-07T20:38:36.463Z,11.18
2023-01-07T20:41:41.050Z,9.60
2023-01-07T20:44:44.035Z,8.02
2023-01-07T20:47:47.031Z,8.50
2023-01-07T20:50:49.999Z,9.77
2023-01-07T20:53:53.211Z,10.95
2023-01-07T20:56:57.629Z,9.47
2023-01-07T21:00:00.649Z,10.25
2023-01-07T21:03:03.736Z,9.73
2023-01-07T21:06:09.859Z,11.98
2023-01-07T21:09:13.388Z,7.53
2023-01-07T21:12:18.872Z,10.97
2023-01-07T21:15:23.863Z,9.48
2023-01-07T21:18:26.850Z,9.73
2023-01-07T21:21:30.872Z,8.40
2023-01-07T21:24:33.886Z,8.18
2023-01-07T21:27:38.307Z,9.40
2023-01-07T21:30:41.378Z,7.78
2023-01-07T21:33:45.808Z,8.75
2023-01-07T21:36:50.119Z,8.98
2023-01-07T21:39:55.400Z,8.38
2023-01-07T21:43:00.482Z,11.18
2023-01-07T21:46:06.268Z,10.40
2023-01-07T21:49:09.440Z,7.30
2023-01-07T21:52:12.419Z,8.52
2023-01-07T21:55:15.346Z,9.38
2023-01-07T21:58:19.837Z,9.77
2023-01-07T22:01:29.603Z,8.57
2023-01-07T22:04:32.741Z,7.03
2023-01-07T22:07:35.716Z,6.32
2023-01-07T22:10:38.816Z,6.78
2023-01-07T22:13:43.257Z,8.80
2023-01-07T22:16:48.891Z,7.32
2023-01-07T22:23:30.243Z,6.97
2023-01-07T22:26:36.019Z,11.35
2023-01-07T22:29:40.375Z,8.18
2023-01-07T22:32:43.325Z,10.63
2023-01-07T22:35:47.983Z,11.27
2023-01-07T22:38:52.478Z,11.35
2023-01-07T22:42:02.430Z,11.68
2023-01-07T22:45:14.126Z,11.63
2023-01-07T22:48:23.852Z,10.65
2023-01-07T22:51:32.867Z,10.30
2023-01-07T22:54:37.008Z,9.15
2023-01-07T23:01:12.692Z,8.30
2023-01-07T23:04:15.800Z,13.70
2023-01-07T23:07:19.177Z,10.48
2023-01-07T23:10:22.157Z,7.27
2023-01-07T23:13:25.670Z,9.50
2023-01-07T23:16:30.209Z,9.18
2023-01-07T23:19:33.303Z,9.45
2023-01-07T23:22:36.689Z,8.13
2023-01-07T23:25:46.494Z,8.37
2023-01-07T23:28:51.320Z,7.70
2023-01-07T23:31:59.332Z,8.10
2023-01-07T23:35:03.833Z,8.70
2023-01-07T23:38:11.388Z,8.10
2023-01-07T23:41:14.922Z,9.05
2023-01-07T23:44:18.299Z,10.25
2023-01-07T23:47:22.716Z,10.80
2023-01-07T23:50:25.633Z,10.05
2023-01-07T23:53:29.014Z,10.13
2023-01-07T23:56:32.463Z,10.30
2023-01-07T23:59:36.104Z,10.50
